sensor_id;sensor_type;location;lat;lon;timestamp;P1;durP1;ratioP1;P2;durP2;ratioP2
21991;SDS011;11160;51.576;0.194;2022-07-12T00:02:09;300.52;;;283.75;;
21991;SDS011;11160;51.576;0.194;2022-07-12T00:04:37;311.98;;;293.90;;
21991;SDS011;11160;51.576;0.194;2022-07-12T00:07:04;279.08;;;264.08;;
21991;SDS011;11160;51.576;0.194;2022-07-12T00:09:33;294.08;;;277.90;;
21991;SDS011;11160;51.576;0.194;2022-07-12T00:12:00;309.33;;;291.27;;
21991;SDS011;11160;51.576;0.194;2022-07-12T00:14:28;281.73;;;266.88;;
21991;SDS011;11160;51.576;0.194;2022-07-12T00:16:55;287.95;;;272.40;;
21991;SDS011;11160;51.576;0.194;2022-07-12T00:19:22;270.65;;;256.33;;
21991;SDS011;11160;51.576;0.194;2022-07-12T00:21:50;296.20;;;279.65;;
21991;SDS011;11160;51.576;0.194;2022-07-12T00:24:18;296.75;;;280.40;;
21991;SDS011;11160;51.576;0.194;2022-07-12T00:26:45;314.23;;;295.45;;
21991;SDS011;11160;51.576;0.194;2022-07-12T00:29:14;309.27;;;291.70;;
21991;SDS011;11160;51.576;0.194;2022-07-12T00:31:41;294.25;;;278.00;;
21991;SDS011;11160;51.576;0.194;2022-07-12T00:34:08;289.08;;;272.85;;
21991;SDS011;11160;51.576;0.194;2022-07-12T00:36:36;282.80;;;267.95;;
21991;SDS011;11160;51.576;0.194;2022-07-12T00:39:03;301.40;;;284.98;;
21991;SDS011;11160;51.576;0.194;2022-07-12T00:41:30;268.60;;;254.57;;
21991;SDS011;11160;51.576;0.194;2022-07-12T00:43:57;287.40;;;271.55;;
21991;SDS011;11160;51.576;0.194;2022-07-12T00:46:24;289.48;;;273.90;;
21991;SDS011;11160;51.576;0.194;2022-07-12T00:48:53;280.80;;;265.80;;
21991;SDS011;11160;51.576;0.194;2022-07-12T00:51:21;275.98;;;261.10;;
21991;SDS011;11160;51.576;0.194;2022-07-12T00:53:49;311.65;;;294.02;;
21991;SDS011;11160;51.576;0.194;2022-07-12T00:56:18;297.58;;;280.48;;
21991;SDS011;11160;51.576;0.194;2022-07-12T00:58:46;291.75;;;275.52;;
21991;SDS011;11160;51.576;0.194;2022-07-12T01:01:14;294.13;;;278.05;;
21991;SDS011;11160;51.576;0.194;2022-07-12T01:03:43;289.27;;;273.75;;
21991;SDS011;11160;51.576;0.194;2022-07-12T01:06:10;294.88;;;278.23;;
21991;SDS011;11160;51.576;0.194;2022-07-12T01:08:38;268.88;;;254.80;;
21991;SDS011;11160;51.576;0.194;2022-07-12T01:11:06;267.65;;;253.50;;
21991;SDS011;11160;51.576;0.194;2022-07-12T01:13:35;290.27;;;273.48;;
21991;SDS011;11160;51.576;0.194;2022-07-12T01:16:07;294.55;;;277.98;;
21991;SDS011;11160;51.576;0.194;2022-07-12T01:18:36;298.00;;;281.70;;
21991;SDS011;11160;51.576;0.194;2022-07-12T01:21:06;273.38;;;258.63;;
21991;SDS011;11160;51.576;0.194;2022-07-12T01:23:34;277.38;;;262.60;;
21991;SDS011;11160;51.576;0.194;2022-07-12T01:26:03;269.10;;;254.43;;
21991;SDS011;11160;51.576;0.194;2022-07-12T01:28:31;311.13;;;293.48;;
21991;SDS011;11160;51.576;0.194;2022-07-12T01:30:58;307.15;;;290.08;;
21991;SDS011;11160;51.576;0.194;2022-07-12T01:33:26;278.90;;;263.83;;
21991;SDS011;11160;51.576;0.194;2022-07-12T01:35:54;294.70;;;278.55;;
21991;SDS011;11160;51.576;0.194;2022-07-12T01:38:21;300.55;;;283.92;;
21991;SDS011;11160;51.576;0.194;2022-07-12T01:40:49;310.10;;;292.88;;
21991;SDS011;11160;51.576;0.194;2022-07-12T01:43:16;311.17;;;293.02;;
21991;SDS011;11160;51.576;0.194;2022-07-12T01:45:44;318.75;;;300.15;;
21991;SDS011;11160;51.576;0.194;2022-07-12T01:48:11;305.48;;;287.70;;
21991;SDS011;11160;51.576;0.194;2022-07-12T01:50:38;303.00;;;286.23;;
21991;SDS011;11160;51.576;0.194;2022-07-12T01:53:05;285.88;;;270.17;;
21991;SDS011;11160;51.576;0.194;2022-07-12T01:55:34;283.67;;;267.83;;
21991;SDS011;11160;51.576;0.194;2022-07-12T01:58:01;307.58;;;290.38;;
21991;SDS011;11160;51.576;0.194;2022-07-12T02:00:29;305.67;;;288.00;;
21991;SDS011;11160;51.576;0.194;2022-07-12T02:02:58;299.25;;;282.73;;
21991;SDS011;11160;51.576;0.194;2022-07-12T02:05:25;279.35;;;264.25;;
21991;SDS011;11160;51.576;0.194;2022-07-12T02:07:53;266.38;;;252.57;;
21991;SDS011;11160;51.576;0.194;2022-07-12T02:10:21;275.73;;;260.98;;
21991;SDS011;11160;51.576;0.194;2022-07-12T02:12:48;292.73;;;276.58;;
21991;SDS011;11160;51.576;0.194;2022-07-12T02:15:16;304.02;;;287.38;;
21991;SDS011;11160;51.576;0.194;2022-07-12T02:17:43;274.63;;;260.10;;
21991;SDS011;11160;51.576;0.194;2022-07-12T02:20:14;316.50;;;298.67;;
21991;SDS011;11160;51.576;0.194;2022-07-12T02:22:42;273.20;;;258.77;;
21991;SDS011;11160;51.576;0.194;2022-07-12T02:25:09;274.85;;;260.42;;
21991;SDS011;11160;51.576;0.194;2022-07-12T02:27:38;303.17;;;286.83;;
21991;SDS011;11160;51.576;0.194;2022-07-12T02:30:07;293.58;;;277.30;;
21991;SDS011;11160;51.576;0.194;2022-07-12T02:32:36;286.17;;;271.00;;
21991;SDS011;11160;51.576;0.194;2022-07-12T02:35:04;304.60;;;287.95;;
21991;SDS011;11160;51.576;0.194;2022-07-12T02:37:32;291.65;;;275.83;;
21991;SDS011;11160;51.576;0.194;2022-07-12T02:39:59;300.33;;;284.15;;
21991;SDS011;11160;51.576;0.194;2022-07-12T02:42:45;306.05;;;289.17;;
21991;SDS011;11160;51.576;0.194;2022-07-12T02:45:12;287.13;;;271.67;;
21991;SDS011;11160;51.576;0.194;2022-07-12T02:47:40;318.48;;;300.25;;
21991;SDS011;11160;51.576;0.194;2022-07-12T02:50:10;319.83;;;301.55;;
21991;SDS011;11160;51.576;0.194;2022-07-12T02:52:37;293.92;;;277.92;;
21991;SDS011;11160;51.576;0.194;2022-07-12T02:55:05;300.35;;;283.88;;
21991;SDS011;11160;51.576;0.194;2022-07-12T02:57:32;324.10;;;305.85;;
21991;SDS011;11160;51.576;0.194;2022-07-12T03:00:00;306.13;;;289.23;;
21991;SDS011;11160;51.576;0.194;2022-07-12T03:02:28;310.40;;;292.27;;
21991;SDS011;11160;51.576;0.194;2022-07-12T03:04:55;330.65;;;311.25;;
21991;SDS011;11160;51.576;0.194;2022-07-12T03:07:22;317.70;;;300.25;;
21991;SDS011;11160;51.576;0.194;2022-07-12T03:09:50;323.77;;;305.27;;
21991;SDS011;11160;51.576;0.194;2022-07-12T03:12:17;325.27;;;306.83;;
21991;SDS011;11160;51.576;0.194;2022-07-12T03:14:44;328.73;;;309.90;;
21991;SDS011;11160;51.576;0.194;2022-07-12T03:17:11;330.48;;;311.58;;
21991;SDS011;11160;51.576;0.194;2022-07-12T03:19:39;355.77;;;334.80;;
21991;SDS011;11160;51.576;0.194;2022-07-12T03:22:06;342.52;;;322.15;;
21991;SDS011;11160;51.576;0.194;2022-07-12T03:24:33;327.25;;;308.45;;
21991;SDS011;11160;51.576;0.194;2022-07-12T03:27:01;326.15;;;307.55;;
21991;SDS011;11160;51.576;0.194;2022-07-12T03:29:29;340.77;;;321.08;;
21991;SDS011;11160;51.576;0.194;2022-07-12T03:31:56;326.38;;;307.67;;
21991;SDS011;11160;51.576;0.194;2022-07-12T03:34:24;333.10;;;312.60;;
21991;SDS011;11160;51.576;0.194;2022-07-12T03:36:51;338.33;;;317.77;;
21991;SDS011;11160;51.576;0.194;2022-07-12T03:39:18;325.98;;;305.90;;
21991;SDS011;11160;51.576;0.194;2022-07-12T03:41:45;339.00;;;318.67;;
21991;SDS011;11160;51.576;0.194;2022-07-12T03:44:13;333.70;;;314.25;;
21991;SDS011;11160;51.576;0.194;2022-07-12T03:46:40;323.58;;;304.85;;
21991;SDS011;11160;51.576;0.194;2022-07-12T03:49:08;327.10;;;308.48;;
21991;SDS011;11160;51.576;0.194;2022-07-12T03:51:35;324.50;;;305.58;;
21991;SDS011;11160;51.576;0.194;2022-07-12T03:54:02;326.35;;;306.65;;
21991;SDS011;11160;51.576;0.194;2022-07-12T03:56:31;341.60;;;320.92;;
21991;SDS011;11160;51.576;0.194;2022-07-12T03:59:17;311.15;;;293.63;;
21991;SDS011;11160;51.576;0.194;2022-07-12T04:01:44;317.48;;;299.45;;
21991;SDS011;11160;51.576;0.194;2022-07-12T04:04:12;317.05;;;298.77;;
21991;SDS011;11160;51.576;0.194;2022-07-12T04:06:39;316.77;;;298.70;;
21991;SDS011;11160;51.576;0.194;2022-07-12T04:09:06;330.55;;;310.60;;
21991;SDS011;11160;51.576;0.194;2022-07-12T04:11:34;316.23;;;297.45;;
21991;SDS011;11160;51.576;0.194;2022-07-12T04:14:01;325.33;;;306.33;;
21991;SDS011;11160;51.576;0.194;2022-07-12T04:16:28;327.80;;;308.30;;
21991;SDS011;11160;51.576;0.194;2022-07-12T04:18:59;312.63;;;294.10;;
21991;SDS011;11160;51.576;0.194;2022-07-12T04:21:26;323.90;;;304.50;;
21991;SDS011;11160;51.576;0.194;2022-07-12T04:23:53;312.83;;;294.20;;
21991;SDS011;11160;51.576;0.194;2022-07-12T04:26:21;319.77;;;300.40;;
21991;SDS011;11160;51.576;0.194;2022-07-12T04:28:48;313.52;;;294.77;;
21991;SDS011;11160;51.576;0.194;2022-07-12T04:31:21;318.23;;;298.67;;
21991;SDS011;11160;51.576;0.194;2022-07-12T04:33:48;324.17;;;305.05;;
21991;SDS011;11160;51.576;0.194;2022-07-12T04:36:16;317.75;;;299.40;;
21991;SDS011;11160;51.576;0.194;2022-07-12T04:38:43;318.77;;;299.77;;
21991;SDS011;11160;51.576;0.194;2022-07-12T04:41:10;326.90;;;307.33;;
21991;SDS011;11160;51.576;0.194;2022-07-12T04:43:37;317.02;;;298.73;;
21991;SDS011;11160;51.576;0.194;2022-07-12T04:46:10;322.75;;;303.65;;
21991;SDS011;11160;51.576;0.194;2022-07-12T04:48:38;317.17;;;298.50;;
21991;SDS011;11160;51.576;0.194;2022-07-12T04:51:05;332.88;;;312.73;;
21991;SDS011;11160;51.576;0.194;2022-07-12T04:53:32;318.27;;;299.67;;
21991;SDS011;11160;51.576;0.194;2022-07-12T04:55:59;329.23;;;310.23;;
21991;SDS011;11160;51.576;0.194;2022-07-12T04:58:26;331.35;;;311.60;;
21991;SDS011;11160;51.576;0.194;2022-07-12T05:00:53;338.13;;;318.10;;
21991;SDS011;11160;51.576;0.194;2022-07-12T05:03:21;324.95;;;305.70;;
21991;SDS011;11160;51.576;0.194;2022-07-12T05:05:53;334.95;;;315.27;;
21991;SDS011;11160;51.576;0.194;2022-07-12T05:08:21;334.13;;;314.33;;
21991;SDS011;11160;51.576;0.194;2022-07-12T05:10:48;333.23;;;313.67;;
21991;SDS011;11160;51.576;0.194;2022-07-12T05:13:15;333.50;;;314.02;;
21991;SDS011;11160;51.576;0.194;2022-07-12T05:15:42;336.65;;;316.00;;
21991;SDS011;11160;51.576;0.194;2022-07-12T05:18:10;334.67;;;314.42;;
21991;SDS011;11160;51.576;0.194;2022-07-12T05:20:37;330.23;;;310.65;;
21991;SDS011;11160;51.576;0.194;2022-07-12T05:23:04;327.08;;;307.20;;
21991;SDS011;11160;51.576;0.194;2022-07-12T05:25:32;330.98;;;311.50;;
21991;SDS011;11160;51.576;0.194;2022-07-12T05:27:59;342.35;;;322.27;;
21991;SDS011;11160;51.576;0.194;2022-07-12T05:30:28;341.05;;;320.30;;
21991;SDS011;11160;51.576;0.194;2022-07-12T05:32:55;334.67;;;314.65;;
21991;SDS011;11160;51.576;0.194;2022-07-12T05:35:22;326.92;;;307.40;;
21991;SDS011;11160;51.576;0.194;2022-07-12T05:37:49;332.77;;;313.05;;
21991;SDS011;11160;51.576;0.194;2022-07-12T05:40:16;335.08;;;315.25;;
21991;SDS011;11160;51.576;0.194;2022-07-12T05:42:45;344.25;;;323.58;;
21991;SDS011;11160;51.576;0.194;2022-07-12T05:45:12;335.10;;;314.95;;
21991;SDS011;11160;51.576;0.194;2022-07-12T05:47:40;328.23;;;308.95;;
21991;SDS011;11160;51.576;0.194;2022-07-12T05:50:07;332.10;;;312.77;;
21991;SDS011;11160;51.576;0.194;2022-07-12T05:52:34;333.38;;;313.60;;
21991;SDS011;11160;51.576;0.194;2022-07-12T05:55:21;333.77;;;313.85;;
21991;SDS011;11160;51.576;0.194;2022-07-12T05:57:48;344.70;;;323.50;;
21991;SDS011;11160;51.576;0.194;2022-07-12T06:00:15;339.90;;;319.65;;
21991;SDS011;11160;51.576;0.194;2022-07-12T06:02:42;339.48;;;319.67;;
21991;SDS011;11160;51.576;0.194;2022-07-12T06:05:10;334.25;;;314.70;;
21991;SDS011;11160;51.576;0.194;2022-07-12T06:07:37;344.92;;;324.13;;
21991;SDS011;11160;51.576;0.194;2022-07-12T06:10:04;341.15;;;321.27;;
21991;SDS011;11160;51.576;0.194;2022-07-12T06:12:32;338.70;;;318.85;;
21991;SDS011;11160;51.576;0.194;2022-07-12T06:14:59;346.08;;;325.15;;
21991;SDS011;11160;51.576;0.194;2022-07-12T06:17:26;341.85;;;321.52;;
21991;SDS011;11160;51.576;0.194;2022-07-12T06:19:53;337.80;;;318.10;;
21991;SDS011;11160;51.576;0.194;2022-07-12T06:22:20;341.73;;;321.17;;
21991;SDS011;11160;51.576;0.194;2022-07-12T06:24:47;329.85;;;310.40;;
21991;SDS011;11160;51.576;0.194;2022-07-12T06:27:14;338.35;;;318.10;;
21991;SDS011;11160;51.576;0.194;2022-07-12T06:29:41;328.77;;;309.40;;
21991;SDS011;11160;51.576;0.194;2022-07-12T06:32:15;344.45;;;324.15;;
21991;SDS011;11160;51.576;0.194;2022-07-12T06:34:42;333.17;;;313.65;;
21991;SDS011;11160;51.576;0.194;2022-07-12T06:37:10;335.70;;;315.67;;
21991;SDS011;11160;51.576;0.194;2022-07-12T06:39:39;334.65;;;315.00;;
21991;SDS011;11160;51.576;0.194;2022-07-12T06:42:06;330.10;;;311.13;;
21991;SDS011;11160;51.576;0.194;2022-07-12T06:44:35;318.67;;;300.20;;
21991;SDS011;11160;51.576;0.194;2022-07-12T06:47:02;338.80;;;318.98;;
21991;SDS011;11160;51.576;0.194;2022-07-12T06:49:30;314.85;;;296.42;;
21991;SDS011;11160;51.576;0.194;2022-07-12T06:51:57;323.58;;;304.65;;
21991;SDS011;11160;51.576;0.194;2022-07-12T06:54:24;322.35;;;303.45;;
21991;SDS011;11160;51.576;0.194;2022-07-12T06:56:51;301.70;;;284.85;;
21991;SDS011;11160;51.576;0.194;2022-07-12T06:59:19;313.40;;;295.35;;
21991;SDS011;11160;51.576;0.194;2022-07-12T07:01:46;327.58;;;307.90;;
21991;SDS011;11160;51.576;0.194;2022-07-12T07:04:13;314.25;;;296.13;;
21991;SDS011;11160;51.576;0.194;2022-07-12T07:06:40;332.00;;;312.20;;
21991;SDS011;11160;51.576;0.194;2022-07-12T07:09:07;302.23;;;283.70;;
21991;SDS011;11160;51.576;0.194;2022-07-12T07:11:35;325.88;;;306.38;;
21991;SDS011;11160;51.576;0.194;2022-07-12T07:14:03;312.45;;;293.35;;
21991;SDS011;11160;51.576;0.194;2022-07-12T07:16:30;305.38;;;286.75;;
21991;SDS011;11160;51.576;0.194;2022-07-12T07:18:58;291.88;;;274.17;;
21991;SDS011;11160;51.576;0.194;2022-07-12T07:21:25;287.55;;;270.25;;
21991;SDS011;11160;51.576;0.194;2022-07-12T07:23:52;305.60;;;287.10;;
21991;SDS011;11160;51.576;0.194;2022-07-12T07:26:19;309.00;;;290.27;;
21991;SDS011;11160;51.576;0.194;2022-07-12T07:28:47;306.92;;;288.38;;
21991;SDS011;11160;51.576;0.194;2022-07-12T07:31:36;278.00;;;261.25;;
21991;SDS011;11160;51.576;0.194;2022-07-12T07:36:31;234.45;;;221.85;;
21991;SDS011;11160;51.576;0.194;2022-07-12T07:38:58;191.43;;;181.25;;
21991;SDS011;11160;51.576;0.194;2022-07-12T07:41:26;167.85;;;158.98;;
21991;SDS011;11160;51.576;0.194;2022-07-12T07:43:53;176.02;;;166.77;;
21991;SDS011;11160;51.576;0.194;2022-07-12T07:46:20;147.48;;;139.85;;
21991;SDS011;11160;51.576;0.194;2022-07-12T07:48:47;165.10;;;156.40;;
21991;SDS011;11160;51.576;0.194;2022-07-12T07:51:14;141.60;;;134.30;;
21991;SDS011;11160;51.576;0.194;2022-07-12T07:53:41;139.13;;;131.93;;
21991;SDS011;11160;51.576;0.194;2022-07-12T07:56:08;133.70;;;126.85;;
21991;SDS011;11160;51.576;0.194;2022-07-12T07:58:36;126.05;;;119.53;;
21991;SDS011;11160;51.576;0.194;2022-07-12T08:01:03;131.90;;;124.97;;
21991;SDS011;11160;51.576;0.194;2022-07-12T08:03:30;117.10;;;111.15;;
21991;SDS011;11160;51.576;0.194;2022-07-12T08:05:57;94.15;;;89.28;;
21991;SDS011;11160;51.576;0.194;2022-07-12T08:08:27;91.72;;;87.05;;
21991;SDS011;11160;51.576;0.194;2022-07-12T08:11:17;84.28;;;79.88;;
21991;SDS011;11160;51.576;0.194;2022-07-12T08:13:44;76.82;;;72.85;;
21991;SDS011;11160;51.576;0.194;2022-07-12T08:16:11;86.88;;;82.50;;
21991;SDS011;11160;51.576;0.194;2022-07-12T08:18:39;84.35;;;80.10;;
21991;SDS011;11160;51.576;0.194;2022-07-12T08:21:06;73.88;;;70.20;;
21991;SDS011;11160;51.576;0.194;2022-07-12T08:23:33;72.85;;;69.22;;
21991;SDS011;11160;51.576;0.194;2022-07-12T08:26:00;84.38;;;80.13;;
21991;SDS011;11160;51.576;0.194;2022-07-12T08:28:27;80.13;;;76.18;;
21991;SDS011;11160;51.576;0.194;2022-07-12T08:30:54;95.40;;;90.72;;
21991;SDS011;11160;51.576;0.194;2022-07-12T08:33:22;87.40;;;83.07;;
21991;SDS011;11160;51.576;0.194;2022-07-12T08:35:49;79.82;;;75.72;;
21991;SDS011;11160;51.576;0.194;2022-07-12T08:38:16;70.90;;;67.18;;
21991;SDS011;11160;51.576;0.194;2022-07-12T08:40:43;65.40;;;62.03;;
21991;SDS011;11160;51.576;0.194;2022-07-12T08:43:10;61.80;;;58.65;;
21991;SDS011;11160;51.576;0.194;2022-07-12T08:45:38;60.75;;;57.63;;
21991;SDS011;11160;51.576;0.194;2022-07-12T08:48:07;74.60;;;70.85;;
21991;SDS011;11160;51.576;0.194;2022-07-12T08:50:35;72.88;;;69.15;;
21991;SDS011;11160;51.576;0.194;2022-07-12T08:53:10;71.43;;;67.80;;
21991;SDS011;11160;51.576;0.194;2022-07-12T08:55:39;71.60;;;68.03;;
21991;SDS011;11160;51.576;0.194;2022-07-12T08:58:15;80.22;;;76.22;;
21991;SDS011;11160;51.576;0.194;2022-07-12T09:00:42;72.43;;;68.68;;
21991;SDS011;11160;51.576;0.194;2022-07-12T09:03:15;89.35;;;84.88;;
21991;SDS011;11160;51.576;0.194;2022-07-12T09:05:47;108.95;;;103.43;;
21991;SDS011;11160;51.576;0.194;2022-07-12T09:08:18;99.10;;;94.00;;
21991;SDS011;11160;51.576;0.194;2022-07-12T09:11:03;96.18;;;91.30;;
21991;SDS011;11160;51.576;0.194;2022-07-12T09:13:50;100.38;;;95.38;;
21991;SDS011;11160;51.576;0.194;2022-07-12T09:16:19;108.90;;;103.30;;
21991;SDS011;11160;51.576;0.194;2022-07-12T09:18:49;102.97;;;97.88;;
21991;SDS011;11160;51.576;0.194;2022-07-12T09:21:24;150.10;;;142.38;;
21991;SDS011;11160;51.576;0.194;2022-07-12T09:23:57;110.20;;;104.70;;
21991;SDS011;11160;51.576;0.194;2022-07-12T09:26:29;161.30;;;152.50;;
21991;SDS011;11160;51.576;0.194;2022-07-12T09:29:07;142.25;;;134.90;;
21991;SDS011;11160;51.576;0.194;2022-07-12T09:34:31;125.68;;;119.28;;
21991;SDS011;11160;51.576;0.194;2022-07-12T09:37:17;92.53;;;87.82;;
21991;SDS011;11160;51.576;0.194;2022-07-12T09:39:45;140.00;;;132.55;;
21991;SDS011;11160;51.576;0.194;2022-07-12T09:42:14;162.32;;;153.65;;
21991;SDS011;11160;51.576;0.194;2022-07-12T09:44:41;106.55;;;100.95;;
21991;SDS011;11160;51.576;0.194;2022-07-12T09:47:09;139.27;;;132.07;;
21991;SDS011;11160;51.576;0.194;2022-07-12T09:49:44;176.38;;;167.13;;
21991;SDS011;11160;51.576;0.194;2022-07-12T09:52:13;188.95;;;178.57;;
21991;SDS011;11160;51.576;0.194;2022-07-12T09:54:46;115.63;;;109.63;;
21991;SDS011;11160;51.576;0.194;2022-07-12T09:57:33;117.87;;;111.77;;
21991;SDS011;11160;51.576;0.194;2022-07-12T10:00:03;93.82;;;89.00;;
21991;SDS011;11160;51.576;0.194;2022-07-12T10:02:39;105.55;;;100.00;;
21991;SDS011;11160;51.576;0.194;2022-07-12T10:05:08;110.80;;;104.80;;
21991;SDS011;11160;51.576;0.194;2022-07-12T10:07:40;105.73;;;99.97;;
21991;SDS011;11160;51.576;0.194;2022-07-12T10:12:36;70.28;;;66.55;;
21991;SDS011;11160;51.576;0.194;2022-07-12T10:15:04;94.15;;;89.13;;
21991;SDS011;11160;51.576;0.194;2022-07-12T10:17:55;94.65;;;89.50;;
21991;SDS011;11160;51.576;0.194;2022-07-12T10:20:26;75.68;;;71.65;;
21991;SDS011;11160;51.576;0.194;2022-07-12T10:22:54;93.05;;;88.10;;
21991;SDS011;11160;51.576;0.194;2022-07-12T10:27:52;99.95;;;94.68;;
21991;SDS011;11160;51.576;0.194;2022-07-12T10:30:24;108.18;;;102.32;;
21991;SDS011;11160;51.576;0.194;2022-07-12T10:32:52;101.38;;;95.90;;
21991;SDS011;11160;51.576;0.194;2022-07-12T10:35:24;92.28;;;87.40;;
21991;SDS011;11160;51.576;0.194;2022-07-12T10:40:39;105.35;;;99.68;;
21991;SDS011;11160;51.576;0.194;2022-07-12T10:48:05;102.25;;;96.63;;
21991;SDS011;11160;51.576;0.194;2022-07-12T10:58:33;92.72;;;87.47;;
21991;SDS011;11160;51.576;0.194;2022-07-12T11:01:08;86.13;;;81.05;;
21991;SDS011;11160;51.576;0.194;2022-07-12T11:03:37;119.10;;;111.78;;
21991;SDS011;11160;51.576;0.194;2022-07-12T11:06:10;95.35;;;89.60;;
21991;SDS011;11160;51.576;0.194;2022-07-12T11:11:17;102.70;;;96.20;;
21991;SDS011;11160;51.576;0.194;2022-07-12T11:13:45;89.38;;;83.85;;
21991;SDS011;11160;51.576;0.194;2022-07-12T11:16:12;86.07;;;80.75;;
21991;SDS011;11160;51.576;0.194;2022-07-12T11:18:41;115.07;;;107.43;;
21991;SDS011;11160;51.576;0.194;2022-07-12T11:21:08;85.05;;;79.80;;
21991;SDS011;11160;51.576;0.194;2022-07-12T11:23:35;92.97;;;87.18;;
21991;SDS011;11160;51.576;0.194;2022-07-12T11:26:03;116.43;;;108.82;;
21991;SDS011;11160;51.576;0.194;2022-07-12T11:28:31;100.10;;;93.43;;
21991;SDS011;11160;51.576;0.194;2022-07-12T11:31:03;93.22;;;87.32;;
21991;SDS011;11160;51.576;0.194;2022-07-12T11:33:33;181.30;;;169.35;;
21991;SDS011;11160;51.576;0.194;2022-07-12T11:36:03;186.30;;;173.43;;
21991;SDS011;11160;51.576;0.194;2022-07-12T11:38:39;267.55;;;247.38;;
21991;SDS011;11160;51.576;0.194;2022-07-12T11:41:10;211.35;;;195.77;;
21991;SDS011;11160;51.576;0.194;2022-07-12T11:43:40;153.10;;;142.95;;
21991;SDS011;11160;51.576;0.194;2022-07-12T11:46:08;211.50;;;196.85;;
21991;SDS011;11160;51.576;0.194;2022-07-12T11:48:37;230.93;;;214.52;;
21991;SDS011;11160;51.576;0.194;2022-07-12T11:51:05;191.55;;;178.00;;
21991;SDS011;11160;51.576;0.194;2022-07-12T11:53:35;159.00;;;148.88;;
21991;SDS011;11160;51.576;0.194;2022-07-12T11:56:04;109.57;;;103.00;;
21991;SDS011;11160;51.576;0.194;2022-07-12T11:58:32;112.13;;;105.20;;
21991;SDS011;11160;51.576;0.194;2022-07-12T12:01:01;287.75;;;267.92;;
21991;SDS011;11160;51.576;0.194;2022-07-12T12:03:28;274.85;;;257.95;;
21991;SDS011;11160;51.576;0.194;2022-07-12T12:05:57;482.73;;;448.30;;
21991;SDS011;11160;51.576;0.194;2022-07-12T12:08:24;464.42;;;432.15;;
21991;SDS011;11160;51.576;0.194;2022-07-12T12:10:55;475.90;;;446.13;;
21991;SDS011;11160;51.576;0.194;2022-07-12T12:13:28;512.15;;;474.08;;
21991;SDS011;11160;51.576;0.194;2022-07-12T12:15:57;523.47;;;485.05;;
21991;SDS011;11160;51.576;0.194;2022-07-12T12:20:59;498.55;;;463.00;;
21991;SDS011;11160;51.576;0.194;2022-07-12T12:23:28;557.13;;;513.22;;
21991;SDS011;11160;51.576;0.194;2022-07-12T12:26:08;381.85;;;357.23;;
21991;SDS011;11160;51.576;0.194;2022-07-12T12:28:51;400.13;;;373.95;;
21991;SDS011;11160;51.576;0.194;2022-07-12T12:31:20;541.25;;;499.95;;
21991;SDS011;11160;51.576;0.194;2022-07-12T12:38:53;328.70;;;307.63;;
21991;SDS011;11160;51.576;0.194;2022-07-12T12:41:21;388.13;;;364.13;;
21991;SDS011;11160;51.576;0.194;2022-07-12T12:43:59;557.17;;;514.60;;
21991;SDS011;11160;51.576;0.194;2022-07-12T12:46:50;449.10;;;419.23;;
21991;SDS011;11160;51.576;0.194;2022-07-12T12:49:20;454.05;;;422.42;;
21991;SDS011;11160;51.576;0.194;2022-07-12T12:52:07;465.33;;;428.67;;
21991;SDS011;11160;51.576;0.194;2022-07-12T12:54:34;398.60;;;370.33;;
21991;SDS011;11160;51.576;0.194;2022-07-12T12:57:05;326.48;;;304.27;;
21991;SDS011;11160;51.576;0.194;2022-07-12T12:59:34;405.38;;;375.20;;
21991;SDS011;11160;51.576;0.194;2022-07-12T13:02:02;364.10;;;336.83;;
21991;SDS011;11160;51.576;0.194;2022-07-12T13:04:32;200.48;;;188.32;;
21991;SDS011;11160;51.576;0.194;2022-07-12T13:07:00;226.90;;;211.35;;
21991;SDS011;11160;51.576;0.194;2022-07-12T13:09:36;265.90;;;246.60;;
21991;SDS011;11160;51.576;0.194;2022-07-12T13:12:03;165.27;;;155.32;;
21991;SDS011;11160;51.576;0.194;2022-07-12T13:14:31;198.88;;;185.30;;
21991;SDS011;11160;51.576;0.194;2022-07-12T13:16:58;288.55;;;267.83;;
21991;SDS011;11160;51.576;0.194;2022-07-12T13:19:25;284.63;;;265.58;;
21991;SDS011;11160;51.576;0.194;2022-07-12T13:21:53;145.30;;;135.90;;
21991;SDS011;11160;51.576;0.194;2022-07-12T13:24:20;264.85;;;246.43;;
21991;SDS011;11160;51.576;0.194;2022-07-12T13:26:47;137.20;;;127.72;;
21991;SDS011;11160;51.576;0.194;2022-07-12T13:29:15;207.90;;;193.98;;
21991;SDS011;11160;51.576;0.194;2022-07-12T13:31:42;143.85;;;134.43;;
21991;SDS011;11160;51.576;0.194;2022-07-12T13:34:09;82.05;;;77.22;;
21991;SDS011;11160;51.576;0.194;2022-07-12T13:36:36;180.02;;;168.48;;
21991;SDS011;11160;51.576;0.194;2022-07-12T13:39:03;148.32;;;138.88;;
21991;SDS011;11160;51.576;0.194;2022-07-12T13:42:09;62.28;;;58.67;;
21991;SDS011;11160;51.576;0.194;2022-07-12T13:44:36;82.65;;;77.35;;
21991;SDS011;11160;51.576;0.194;2022-07-12T13:47:03;111.35;;;104.10;;
21991;SDS011;11160;51.576;0.194;2022-07-12T13:49:30;174.23;;;162.55;;
21991;SDS011;11160;51.576;0.194;2022-07-12T13:51:57;195.05;;;182.80;;
21991;SDS011;11160;51.576;0.194;2022-07-12T13:54:24;128.73;;;120.90;;
21991;SDS011;11160;51.576;0.194;2022-07-12T13:56:52;333.05;;;309.90;;
21991;SDS011;11160;51.576;0.194;2022-07-12T13:59:19;395.30;;;366.58;;
21991;SDS011;11160;51.576;0.194;2022-07-12T14:01:46;136.50;;;128.45;;
21991;SDS011;11160;51.576;0.194;2022-07-12T14:06:43;65.40;;;61.63;;
21991;SDS011;11160;51.576;0.194;2022-07-12T14:09:10;263.60;;;245.43;;
21991;SDS011;11160;51.576;0.194;2022-07-12T14:11:37;202.50;;;189.20;;
21991;SDS011;11160;51.576;0.194;2022-07-12T14:14:04;256.23;;;238.55;;
21991;SDS011;11160;51.576;0.194;2022-07-12T14:16:31;114.85;;;107.05;;
21991;SDS011;11160;51.576;0.194;2022-07-12T14:18:59;214.85;;;199.95;;
21991;SDS011;11160;51.576;0.194;2022-07-12T14:21:27;171.80;;;160.15;;
21991;SDS011;11160;51.576;0.194;2022-07-12T14:23:56;158.68;;;147.90;;
21991;SDS011;11160;51.576;0.194;2022-07-12T14:26:27;139.98;;;130.50;;
21991;SDS011;11160;51.576;0.194;2022-07-12T14:28:54;148.43;;;138.38;;
21991;SDS011;11160;51.576;0.194;2022-07-12T14:31:22;174.13;;;162.38;;
21991;SDS011;11160;51.576;0.194;2022-07-12T14:33:50;155.98;;;145.18;;
21991;SDS011;11160;51.576;0.194;2022-07-12T14:36:17;157.90;;;147.23;;
21991;SDS011;11160;51.576;0.194;2022-07-12T14:38:45;139.77;;;130.13;;
21991;SDS011;11160;51.576;0.194;2022-07-12T14:41:18;132.95;;;124.05;;
21991;SDS011;11160;51.576;0.194;2022-07-12T14:43:45;164.45;;;153.30;;
21991;SDS011;11160;51.576;0.194;2022-07-12T14:46:14;147.55;;;137.48;;
21991;SDS011;11160;51.576;0.194;2022-07-12T14:48:43;135.25;;;125.90;;
21991;SDS011;11160;51.576;0.194;2022-07-12T14:51:10;155.88;;;145.32;;